sensor_id;sensor_type;location;lat;lon;timestamp;temperature;humidity
33955;DHT22;20233;50.804;7.126;2022-12-10T00:01:34;0.60;99.90
33955;DHT22;20233;50.804;7.126;2022-12-10T00:04:02;0.60;99.90
33955;DHT22;20233;50.804;7.126;2022-12-10T00:06:33;0.60;99.90
33955;DHT22;20233;50.804;7.126;2022-12-10T00:09:01;0.60;99.90
33955;DHT22;20233;50.804;7.126;2022-12-10T00:11:28;0.60;99.90
33955;DHT22;20233;50.804;7.126;2022-12-10T00:13:55;0.60;99.90
33955;DHT22;20233;50.804;7.126;2022-12-10T00:16:24;0.60;99.90
33955;DHT22;20233;50.804;7.126;2022-12-10T00:18:52;0.60;99.90
33955;DHT22;20233;50.804;7.126;2022-12-10T00:21:21;0.60;99.90
33955;DHT22;20233;50.804;7.126;2022-12-10T00:23:48;0.60;99.90
33955;DHT22;20233;50.804;7.126;2022-12-10T00:26:26;0.60;99.90
33955;DHT22;20233;50.804;7.126;2022-12-10T00:28:54;0.60;99.90
33955;DHT22;20233;50.804;7.126;2022-12-10T00:31:33;0.60;99.90
33955;DHT22;20233;50.804;7.126;2022-12-10T00:34:02;0.60;99.90
33955;DHT22;20233;50.804;7.126;2022-12-10T00:36:31;0.60;99.90
33955;DHT22;20233;50.804;7.126;2022-12-10T00:38:58;0.60;99.90
33955;DHT22;20233;50.804;7.126;2022-12-10T00:41:25;0.60;99.90
33955;DHT22;20233;50.804;7.126;2022-12-10T00:43:51;0.70;99.90
33955;DHT22;20233;50.804;7.126;2022-12-10T00:46:18;0.70;99.90
33955;DHT22;20233;50.804;7.126;2022-12-10T00:48:45;0.60;99.90
33955;DHT22;20233;50.804;7.126;2022-12-10T00:51:20;0.60;99.90
33955;DHT22;20233;50.804;7.126;2022-12-10T00:53:49;0.50;99.90
33955;DHT22;20233;50.804;7.126;2022-12-10T00:56:18;0.60;99.90
33955;DHT22;20233;50.804;7.126;2022-12-10T00:58:45;0.60;99.90
33955;DHT22;20233;50.804;7.126;2022-12-10T01:01:16;0.70;99.90
33955;DHT22;20233;50.804;7.126;2022-12-10T01:03:45;0.70;99.90
33955;DHT22;20233;50.804;7.126;2022-12-10T01:08:43;0.70;99.90
33955;DHT22;20233;50.804;7.126;2022-12-10T01:11:10;0.70;99.90
33955;DHT22;20233;50.804;7.126;2022-12-10T01:13:39;0.70;99.90
33955;DHT22;20233;50.804;7.126;2022-12-10T01:16:07;0.80;99.90
33955;DHT22;20233;50.804;7.126;2022-12-10T01:18:34;0.80;99.90
33955;DHT22;20233;50.804;7.126;2022-12-10T01:21:08;0.80;99.90
33955;DHT22;20233;50.804;7.126;2022-12-10T01:23:36;0.90;99.90
33955;DHT22;20233;50.804;7.126;2022-12-10T01:26:06;0.80;99.90
33955;DHT22;20233;50.804;7.126;2022-12-10T01:28:34;0.80;99.90
33955;DHT22;20233;50.804;7.126;2022-12-10T01:31:06;0.80;99.90
33955;DHT22;20233;50.804;7.126;2022-12-10T01:33:33;0.80;99.90
33955;DHT22;20233;50.804;7.126;2022-12-10T01:36:23;0.80;99.90
33955;DHT22;20233;50.804;7.126;2022-12-10T01:38:50;0.80;99.90
33955;DHT22;20233;50.804;7.126;2022-12-10T01:41:20;0.80;99.90
33955;DHT22;20233;50.804;7.126;2022-12-10T01:46:40;0.70;99.90
33955;DHT22;20233;50.804;7.126;2022-12-10T01:49:09;0.70;99.90
33955;DHT22;20233;50.804;7.126;2022-12-10T01:51:38;0.70;99.90
33955;DHT22;20233;50.804;7.126;2022-12-10T01:54:08;0.70;99.90
33955;DHT22;20233;50.804;7.126;2022-12-10T01:56:40;0.70;99.90
33955;DHT22;20233;50.804;7.126;2022-12-10T01:59:07;0.60;99.90
33955;DHT22;20233;50.804;7.126;2022-12-10T02:04:37;0.70;99.90
33955;DHT22;20233;50.804;7.126;2022-12-10T02:09:59;0.60;99.90
33955;DHT22;20233;50.804;7.126;2022-12-10T02:15:17;0.50;99.90
33955;DHT22;20233;50.804;7.126;2022-12-10T02:17:52;0.40;99.90
33955;DHT22;20233;50.804;7.126;2022-12-10T02:20:32;0.50;99.90
33955;DHT22;20233;50.804;7.126;2022-12-10T02:23:25;0.50;99.90
33955;DHT22;20233;50.804;7.126;2022-12-10T02:31:25;0.30;99.90
33955;DHT22;20233;50.804;7.126;2022-12-10T02:33:56;0.40;99.90
33955;DHT22;20233;50.804;7.126;2022-12-10T02:36:26;0.40;99.90
33955;DHT22;20233;50.804;7.126;2022-12-10T02:38:52;0.40;99.90
33955;DHT22;20233;50.804;7.126;2022-12-10T02:41:26;0.50;99.90
33955;DHT22;20233;50.804;7.126;2022-12-10T02:43:55;0.40;99.90
33955;DHT22;20233;50.804;7.126;2022-12-10T02:46:23;0.50;99.90
33955;DHT22;20233;50.804;7.126;2022-12-10T02:48:53;0.40;99.90
33955;DHT22;20233;50.804;7.126;2022-12-10T02:51:19;0.40;99.90
33955;DHT22;20233;50.804;7.126;2022-12-10T02:53:45;0.40;99.90
33955;DHT22;20233;50.804;7.126;2022-12-10T02:56:21;0.50;99.90
33955;DHT22;20233;50.804;7.126;2022-12-10T03:02:00;0.50;99.90
33955;DHT22;20233;50.804;7.126;2022-12-10T03:04:45;0.50;99.90
33955;DHT22;20233;50.804;7.126;2022-12-10T03:07:18;0.60;99.90
33955;DHT22;20233;50.804;7.126;2022-12-10T03:09:56;0.60;99.90
33955;DHT22;20233;50.804;7.126;2022-12-10T03:12:41;0.60;99.90
33955;DHT22;20233;50.804;7.126;2022-12-10T03:15:10;0.60;99.90
33955;DHT22;20233;50.804;7.126;2022-12-10T03:17:39;0.50;99.90
33955;DHT22;20233;50.804;7.126;2022-12-10T03:20:08;0.60;99.90
33955;DHT22;20233;50.804;7.126;2022-12-10T03:22:39;0.60;99.90
33955;DHT22;20233;50.804;7.126;2022-12-10T03:25:08;0.60;99.90
33955;DHT22;20233;50.804;7.126;2022-12-10T03:27:37;0.70;99.90
33955;DHT22;20233;50.804;7.126;2022-12-10T03:30:05;0.70;99.90
33955;DHT22;20233;50.804;7.126;2022-12-10T03:32:32;0.70;99.90
33955;DHT22;20233;50.804;7.126;2022-12-10T03:34:59;0.80;99.90
33955;DHT22;20233;50.804;7.126;2022-12-10T03:37:27;0.60;99.90
33955;DHT22;20233;50.804;7.126;2022-12-10T03:39:56;0.40;99.90
33955;DHT22;20233;50.804;7.126;2022-12-10T03:42:23;0.50;99.90
33955;DHT22;20233;50.804;7.126;2022-12-10T03:44:52;0.60;99.90
33955;DHT22;20233;50.804;7.126;2022-12-10T03:47:19;0.70;99.90
33955;DHT22;20233;50.804;7.126;2022-12-10T03:49:45;0.60;99.90
33955;DHT22;20233;50.804;7.126;2022-12-10T03:52:12;0.70;99.90
33955;DHT22;20233;50.804;7.126;2022-12-10T03:54:38;0.70;99.90
33955;DHT22;20233;50.804;7.126;2022-12-10T03:57:04;0.70;99.90
33955;DHT22;20233;50.804;7.126;2022-12-10T03:59:30;0.80;99.90
33955;DHT22;20233;50.804;7.126;2022-12-10T04:01:57;0.80;99.90
33955;DHT22;20233;50.804;7.126;2022-12-10T04:04:23;0.90;99.90
33955;DHT22;20233;50.804;7.126;2022-12-10T04:06:49;0.90;99.90
33955;DHT22;20233;50.804;7.126;2022-12-10T04:09:16;0.90;99.90
33955;DHT22;20233;50.804;7.126;2022-12-10T04:11:43;0.90;99.90
33955;DHT22;20233;50.804;7.126;2022-12-10T04:14:11;1.00;99.90
33955;DHT22;20233;50.804;7.126;2022-12-10T04:16:56;0.90;99.90
33955;DHT22;20233;50.804;7.126;2022-12-10T04:19:22;0.80;99.90
33955;DHT22;20233;50.804;7.126;2022-12-10T04:21:49;1.00;99.90
33955;DHT22;20233;50.804;7.126;2022-12-10T04:24:35;1.00;99.90
33955;DHT22;20233;50.804;7.126;2022-12-10T04:27:26;1.10;99.90
33955;DHT22;20233;50.804;7.126;2022-12-10T04:29:53;0.80;99.90
33955;DHT22;20233;50.804;7.126;2022-12-10T04:32:20;0.70;99.90
33955;DHT22;20233;50.804;7.126;2022-12-10T04:34:48;0.90;99.90
33955;DHT22;20233;50.804;7.126;2022-12-10T04:37:14;0.50;99.90
33955;DHT22;20233;50.804;7.126;2022-12-10T04:39:41;0.60;99.90
33955;DHT22;20233;50.804;7.126;2022-12-10T04:42:08;0.30;99.90
33955;DHT22;20233;50.804;7.126;2022-12-10T04:44:35;0.50;99.90
33955;DHT22;20233;50.804;7.126;2022-12-10T04:47:01;0.60;99.90
33955;DHT22;20233;50.804;7.126;2022-12-10T04:49:29;0.70;99.90
33955;DHT22;20233;50.804;7.126;2022-12-10T04:51:55;0.70;99.90
33955;DHT22;20233;50.804;7.126;2022-12-10T04:54:21;0.60;99.90
33955;DHT22;20233;50.804;7.126;2022-12-10T04:56:47;0.20;99.90
33955;DHT22;20233;50.804;7.126;2022-12-10T04:59:14;0.20;99.90
33955;DHT22;20233;50.804;7.126;2022-12-10T05:01:40;0.30;99.90
33955;DHT22;20233;50.804;7.126;2022-12-10T05:04:09;0.30;99.90
33955;DHT22;20233;50.804;7.126;2022-12-10T05:06:36;-0.10;99.90
33955;DHT22;20233;50.804;7.126;2022-12-10T05:09:04;-0.20;99.90
33955;DHT22;20233;50.804;7.126;2022-12-10T05:11:33;-0.10;99.90
33955;DHT22;20233;50.804;7.126;2022-12-10T05:14:00;-0.30;99.90
33955;DHT22;20233;50.804;7.126;2022-12-10T05:16:30;-0.30;99.90
33955;DHT22;20233;50.804;7.126;2022-12-10T05:18:57;-0.20;99.90
33955;DHT22;20233;50.804;7.126;2022-12-10T05:21:26;-0.40;99.90
33955;DHT22;20233;50.804;7.126;2022-12-10T05:24:16;-0.30;99.90
33955;DHT22;20233;50.804;7.126;2022-12-10T05:26:43;-0.40;99.90
33955;DHT22;20233;50.804;7.126;2022-12-10T05:29:10;-0.30;99.90
33955;DHT22;20233;50.804;7.126;2022-12-10T05:31:37;-0.30;99.90
33955;DHT22;20233;50.804;7.126;2022-12-10T05:34:04;-0.20;99.90
33955;DHT22;20233;50.804;7.126;2022-12-10T05:36:31;0.00;99.90
33955;DHT22;20233;50.804;7.126;2022-12-10T05:38:58;0.20;99.90
33955;DHT22;20233;50.804;7.126;2022-12-10T05:41:27;0.30;99.90
33955;DHT22;20233;50.804;7.126;2022-12-10T05:43:55;0.40;99.90
33955;DHT22;20233;50.804;7.126;2022-12-10T05:46:23;0.40;99.90
33955;DHT22;20233;50.804;7.126;2022-12-10T05:48:50;0.60;99.90
33955;DHT22;20233;50.804;7.126;2022-12-10T05:51:19;0.60;99.90
33955;DHT22;20233;50.804;7.126;2022-12-10T05:53:46;0.70;99.90
33955;DHT22;20233;50.804;7.126;2022-12-10T05:56:14;0.70;99.90
33955;DHT22;20233;50.804;7.126;2022-12-10T05:58:42;0.80;99.90
33955;DHT22;20233;50.804;7.126;2022-12-10T06:01:14;0.70;99.90
33955;DHT22;20233;50.804;7.126;2022-12-10T06:03:41;0.70;99.90
33955;DHT22;20233;50.804;7.126;2022-12-10T06:06:08;0.70;99.90
33955;DHT22;20233;50.804;7.126;2022-12-10T06:08:38;0.80;99.90
33955;DHT22;20233;50.804;7.126;2022-12-10T06:11:07;0.90;99.90
33955;DHT22;20233;50.804;7.126;2022-12-10T06:13:35;0.90;99.90
33955;DHT22;20233;50.804;7.126;2022-12-10T06:16:05;0.90;99.90
33955;DHT22;20233;50.804;7.126;2022-12-10T06:18:32;0.90;99.90
33955;DHT22;20233;50.804;7.126;2022-12-10T06:21:02;1.00;99.90
33955;DHT22;20233;50.804;7.126;2022-12-10T06:23:29;0.90;99.90
33955;DHT22;20233;50.804;7.126;2022-12-10T06:25:55;1.00;99.90
33955;DHT22;20233;50.804;7.126;2022-12-10T06:28:22;0.90;99.90
33955;DHT22;20233;50.804;7.126;2022-12-10T06:30:47;0.90;99.90
33955;DHT22;20233;50.804;7.126;2022-12-10T06:33:14;0.90;99.90
33955;DHT22;20233;50.804;7.126;2022-12-10T06:35:40;1.00;99.90
33955;DHT22;20233;50.804;7.126;2022-12-10T06:38:07;1.00;99.90
33955;DHT22;20233;50.804;7.126;2022-12-10T06:40:33;1.00;99.90
33955;DHT22;20233;50.804;7.126;2022-12-10T06:42:59;0.90;99.90
33955;DHT22;20233;50.804;7.126;2022-12-10T06:45:26;0.90;99.90
33955;DHT22;20233;50.804;7.126;2022-12-10T06:47:52;0.90;99.90
33955;DHT22;20233;50.804;7.126;2022-12-10T06:50:18;1.00;99.90
33955;DHT22;20233;50.804;7.126;2022-12-10T06:52:45;1.00;99.90
33955;DHT22;20233;50.804;7.126;2022-12-10T06:55:11;1.00;99.90
33955;DHT22;20233;50.804;7.126;2022-12-10T06:57:37;1.00;99.90
33955;DHT22;20233;50.804;7.126;2022-12-10T07:00:05;1.00;99.90
33955;DHT22;20233;50.804;7.126;2022-12-10T07:02:31;1.00;99.90
33955;DHT22;20233;50.804;7.126;2022-12-10T07:04:58;1.00;99.90
33955;DHT22;20233;50.804;7.126;2022-12-10T07:07:25;1.10;99.90
33955;DHT22;20233;50.804;7.126;2022-12-10T07:09:51;1.10;99.90
33955;DHT22;20233;50.804;7.126;2022-12-10T07:12:17;1.00;99.90
33955;DHT22;20233;50.804;7.126;2022-12-10T07:14:44;1.00;99.90
33955;DHT22;20233;50.804;7.126;2022-12-10T07:17:13;0.90;99.90
33955;DHT22;20233;50.804;7.126;2022-12-10T07:19:39;0.70;99.90
33955;DHT22;20233;50.804;7.126;2022-12-10T07:22:06;0.80;99.90
33955;DHT22;20233;50.804;7.126;2022-12-10T07:24:32;0.90;99.90
33955;DHT22;20233;50.804;7.126;2022-12-10T07:26:59;0.90;99.90
33955;DHT22;20233;50.804;7.126;2022-12-10T07:29:25;0.70;99.90
33955;DHT22;20233;50.804;7.126;2022-12-10T07:31:52;0.50;99.90
33955;DHT22;20233;50.804;7.126;2022-12-10T07:34:20;0.60;99.90
33955;DHT22;20233;50.804;7.126;2022-12-10T07:36:46;0.80;99.90
33955;DHT22;20233;50.804;7.126;2022-12-10T07:39:13;0.90;99.90
33955;DHT22;20233;50.804;7.126;2022-12-10T07:41:51;1.00;99.90
33955;DHT22;20233;50.804;7.126;2022-12-10T07:44:23;1.10;99.90
33955;DHT22;20233;50.804;7.126;2022-12-10T07:46:52;1.10;99.90
33955;DHT22;20233;50.804;7.126;2022-12-10T07:49:18;0.90;99.90
33955;DHT22;20233;50.804;7.126;2022-12-10T07:51:49;1.00;99.90
33955;DHT22;20233;50.804;7.126;2022-12-10T07:54:17;1.00;99.90
33955;DHT22;20233;50.804;7.126;2022-12-10T07:56:44;1.10;99.90
33955;DHT22;20233;50.804;7.126;2022-12-10T07:59:13;1.10;99.90
33955;DHT22;20233;50.804;7.126;2022-12-10T08:01:39;1.00;99.90
33955;DHT22;20233;50.804;7.126;2022-12-10T08:04:06;1.10;99.90
33955;DHT22;20233;50.804;7.126;2022-12-10T08:06:33;1.20;99.90
33955;DHT22;20233;50.804;7.126;2022-12-10T08:09:01;1.30;99.90
33955;DHT22;20233;50.804;7.126;2022-12-10T08:11:30;1.30;99.90
33955;DHT22;20233;50.804;7.126;2022-12-10T08:13:58;1.40;99.90
33955;DHT22;20233;50.804;7.126;2022-12-10T08:16:27;1.40;99.90
33955;DHT22;20233;50.804;7.126;2022-12-10T08:18:55;1.40;99.90
33955;DHT22;20233;50.804;7.126;2022-12-10T08:21:25;1.40;99.90
33955;DHT22;20233;50.804;7.126;2022-12-10T08:23:53;1.50;99.90
33955;DHT22;20233;50.804;7.126;2022-12-10T08:26:23;1.50;99.90
33955;DHT22;20233;50.804;7.126;2022-12-10T08:28:51;1.50;99.90
33955;DHT22;20233;50.804;7.126;2022-12-10T08:31:18;1.50;99.90
33955;DHT22;20233;50.804;7.126;2022-12-10T08:33:44;1.50;99.90
33955;DHT22;20233;50.804;7.126;2022-12-10T08:36:13;1.50;99.90
33955;DHT22;20233;50.804;7.126;2022-12-10T08:38:40;1.50;99.90
33955;DHT22;20233;50.804;7.126;2022-12-10T08:41:17;1.50;99.90
33955;DHT22;20233;50.804;7.126;2022-12-10T08:43:44;1.50;99.90
33955;DHT22;20233;50.804;7.126;2022-12-10T08:46:12;1.60;99.90
33955;DHT22;20233;50.804;7.126;2022-12-10T08:48:41;1.50;99.90
33955;DHT22;20233;50.804;7.126;2022-12-10T08:51:09;1.50;99.90
33955;DHT22;20233;50.804;7.126;2022-12-10T08:53:36;1.50;99.90
33955;DHT22;20233;50.804;7.126;2022-12-10T08:56:03;1.30;99.90
33955;DHT22;20233;50.804;7.126;2022-12-10T08:58:29;1.40;99.90
33955;DHT22;20233;50.804;7.126;2022-12-10T09:00:56;1.60;99.90
33955;DHT22;20233;50.804;7.126;2022-12-10T09:03:23;1.60;99.90
33955;DHT22;20233;50.804;7.126;2022-12-10T09:05:49;1.60;99.90
33955;DHT22;20233;50.804;7.126;2022-12-10T09:08:16;1.60;99.90
33955;DHT22;20233;50.804;7.126;2022-12-10T09:10:42;1.70;99.90
33955;DHT22;20233;50.804;7.126;2022-12-10T09:13:09;1.70;99.90
33955;DHT22;20233;50.804;7.126;2022-12-10T09:15:37;1.80;99.90
33955;DHT22;20233;50.804;7.126;2022-12-10T09:18:03;1.80;99.90
33955;DHT22;20233;50.804;7.126;2022-12-10T09:20:30;1.80;99.90
33955;DHT22;20233;50.804;7.126;2022-12-10T09:22:56;1.80;99.90
33955;DHT22;20233;50.804;7.126;2022-12-10T09:25:23;1.70;99.90
33955;DHT22;20233;50.804;7.126;2022-12-10T09:27:49;1.80;99.90
33955;DHT22;20233;50.804;7.126;2022-12-10T09:30:16;1.90;99.90
33955;DHT22;20233;50.804;7.126;2022-12-10T09:32:43;2.00;99.90
33955;DHT22;20233;50.804;7.126;2022-12-10T09:35:13;2.00;99.90
33955;DHT22;20233;50.804;7.126;2022-12-10T09:37:39;2.10;99.90
33955;DHT22;20233;50.804;7.126;2022-12-10T09:40:06;2.00;99.90
33955;DHT22;20233;50.804;7.126;2022-12-10T09:42:50;2.10;99.90
33955;DHT22;20233;50.804;7.126;2022-12-10T09:48:40;2.20;99.90
33955;DHT22;20233;50.804;7.126;2022-12-10T09:53:15;2.10;99.90
33955;DHT22;20233;50.804;7.126;2022-12-10T09:55:47;2.20;99.90
33955;DHT22;20233;50.804;7.126;2022-12-10T09:58:20;2.30;99.90
33955;DHT22;20233;50.804;7.126;2022-12-10T10:00:49;2.30;99.90
33955;DHT22;20233;50.804;7.126;2022-12-10T10:03:17;2.30;99.90
33955;DHT22;20233;50.804;7.126;2022-12-10T10:05:51;2.30;99.90
33955;DHT22;20233;50.804;7.126;2022-12-10T10:08:23;2.00;99.90
33955;DHT22;20233;50.804;7.126;2022-12-10T10:10:52;2.10;99.90
33955;DHT22;20233;50.804;7.126;2022-12-10T10:13:40;2.10;99.90
33955;DHT22;20233;50.804;7.126;2022-12-10T10:16:18;2.20;99.90
33955;DHT22;20233;50.804;7.126;2022-12-10T10:19:02;2.10;99.90
33955;DHT22;20233;50.804;7.126;2022-12-10T10:21:37;2.20;99.90
33955;DHT22;20233;50.804;7.126;2022-12-10T10:24:05;2.30;99.90
33955;DHT22;20233;50.804;7.126;2022-12-10T10:26:34;2.30;99.90
33955;DHT22;20233;50.804;7.126;2022-12-10T10:29:11;2.30;99.90
33955;DHT22;20233;50.804;7.126;2022-12-10T10:31:41;2.20;99.90
33955;DHT22;20233;50.804;7.126;2022-12-10T10:34:20;2.10;99.90
33955;DHT22;20233;50.804;7.126;2022-12-10T10:36:47;2.20;99.90
33955;DHT22;20233;50.804;7.126;2022-12-10T10:41:53;2.40;99.90
33955;DHT22;20233;50.804;7.126;2022-12-10T10:44:21;2.50;99.90
33955;DHT22;20233;50.804;7.126;2022-12-10T10:46:50;2.50;99.90
33955;DHT22;20233;50.804;7.126;2022-12-10T10:49:26;2.50;99.90
33955;DHT22;20233;50.804;7.126;2022-12-10T10:51:59;2.50;99.90
33955;DHT22;20233;50.804;7.126;2022-12-10T10:54:39;2.40;99.90
33955;DHT22;20233;50.804;7.126;2022-12-10T10:57:19;2.40;99.90
33955;DHT22;20233;50.804;7.126;2022-12-10T10:59:46;2.40;99.90
33955;DHT22;20233;50.804;7.126;2022-12-10T11:02:17;2.40;99.90
33955;DHT22;20233;50.804;7.126;2022-12-10T11:04:50;2.50;99.90
33955;DHT22;20233;50.804;7.126;2022-12-10T11:07:34;2.60;99.90
33955;DHT22;20233;50.804;7.126;2022-12-10T11:10:19;2.60;99.90
33955;DHT22;20233;50.804;7.126;2022-12-10T11:15:41;2.70;99.90
33955;DHT22;20233;50.804;7.126;2022-12-10T11:18:25;2.80;99.90
33955;DHT22;20233;50.804;7.126;2022-12-10T11:23:36;2.30;99.90
33955;DHT22;20233;50.804;7.126;2022-12-10T11:32:20;2.00;99.90
33955;DHT22;20233;50.804;7.126;2022-12-10T11:37:36;2.30;99.90
33955;DHT22;20233;50.804;7.126;2022-12-10T11:46:26;2.50;99.90
33955;DHT22;20233;50.804;7.126;2022-12-10T11:49:05;2.40;99.90
33955;DHT22;20233;50.804;7.126;2022-12-10T11:51:49;2.40;99.90
33955;DHT22;20233;50.804;7.126;2022-12-10T11:55:02;2.40;99.90
33955;DHT22;20233;50.804;7.126;2022-12-10T12:03:59;2.70;99.90
33955;DHT22;20233;50.804;7.126;2022-12-10T12:06:53;2.70;99.90
33955;DHT22;20233;50.804;7.126;2022-12-10T12:15:42;2.50;99.90
33955;DHT22;20233;50.804;7.126;2022-12-10T12:17:49;2.40;99.90
33955;DHT22;20233;50.804;7.126;2022-12-10T12:20:43;2.50;99.90
33955;DHT22;20233;50.804;7.126;2022-12-10T12:23:15;2.60;99.90
33955;DHT22;20233;50.804;7.126;2022-12-10T12:25:48;2.50;99.90
33955;DHT22;20233;50.804;7.126;2022-12-10T12:31:12;2.40;99.90
33955;DHT22;20233;50.804;7.126;2022-12-10T12:33:59;2.60;99.90
33955;DHT22;20233;50.804;7.126;2022-12-10T12:36:29;2.80;99.90
33955;DHT22;20233;50.804;7.126;2022-12-10T12:42:01;2.70;99.90
33955;DHT22;20233;50.804;7.126;2022-12-10T12:44:44;2.80;99.90
33955;DHT22;20233;50.804;7.126;2022-12-10T12:47:53;2.80;99.90
33955;DHT22;20233;50.804;7.126;2022-12-10T12:50:41;2.80;99.90
33955;DHT22;20233;50.804;7.126;2022-12-10T12:53:15;2.90;99.90
33955;DHT22;20233;50.804;7.126;2022-12-10T13:01:33;3.20;99.90
33955;DHT22;20233;50.804;7.126;2022-12-10T13:04:00;2.60;99.90
33955;DHT22;20233;50.804;7.126;2022-12-10T13:06:30;2.60;99.90
33955;DHT22;20233;50.804;7.126;2022-12-10T13:11:39;2.90;99.90
33955;DHT22;20233;50.804;7.126;2022-12-10T13:24:43;2.90;99.90
33955;DHT22;20233;50.804;7.126;2022-12-10T13:40:13;3.10;99.90
33955;DHT22;20233;50.804;7.126;2022-12-10T13:42:44;3.20;99.90
33955;DHT22;20233;50.804;7.126;2022-12-10T13:45:33;3.20;99.90
33955;DHT22;20233;50.804;7.126;2022-12-10T13:48:30;3.30;99.90
33955;DHT22;20233;50.804;7.126;2022-12-10T14:02:00;3.00;99.90
33955;DHT22;20233;50.804;7.126;2022-12-10T14:04:51;2.80;99.90
33955;DHT22;20233;50.804;7.126;2022-12-10T14:07:24;3.00;99.90
33955;DHT22;20233;50.804;7.126;2022-12-10T14:09:54;3.10;99.90
33955;DHT22;20233;50.804;7.126;2022-12-10T14:12:26;3.10;99.90
33955;DHT22;20233;50.804;7.126;2022-12-10T14:15:07;3.20;99.90
33955;DHT22;20233;50.804;7.126;2022-12-10T14:17:37;3.20;99.90
33955;DHT22;20233;50.804;7.126;2022-12-10T14:20:07;3.20;99.90
33955;DHT22;20233;50.804;7.126;2022-12-10T14:22:37;3.10;99.90
33955;DHT22;20233;50.804;7.126;2022-12-10T14:25:09;3.20;99.90
33955;DHT22;20233;50.804;7.126;2022-12-10T14:27:38;3.20;99.90
33955;DHT22;20233;50.804;7.126;2022-12-10T14:30:22;3.20;99.90
33955;DHT22;20233;50.804;7.126;2022-12-10T14:32:50;3.10;99.90
33955;DHT22;20233;50.804;7.126;2022-12-10T14:35:20;3.10;99.90
33955;DHT22;20233;50.804;7.126;2022-12-10T14:37:48;3.20;99.90
33955;DHT22;20233;50.804;7.126;2022-12-10T14:40:37;3.20;99.90
33955;DHT22;20233;50.804;7.126;2022-12-10T14:43:11;3.30;99.90
33955;DHT22;20233;50.804;7.126;2022-12-10T14:45:51;3.30;99.90
33955;DHT22;20233;50.804;7.126;2022-12-10T14:48:18;3.20;99.90
33955;DHT22;20233;50.804;7.126;2022-12-10T14:50:46;3.20;99.90
33955;DHT22;20233;50.804;7.126;2022-12-10T14:53:16;3.20;99.90
33955;DHT22;20233;50.804;7.126;2022-12-10T14:55:47;3.10;99.90
33955;DHT22;20233;50.804;7.126;2022-12-10T14:58:39;3.10;99.90
33955;DHT22;20233;50.804;7.126;2022-12-10T15:01:05;3.10;99.90
33955;DHT22;20233;50.804;7.126;2022-12-10T15:03:39;3.00;99.90
33955;DHT22;20233;50.804;7.126;2022-12-10T15:06:09;3.00;99.90
33955;DHT22;20233;50.804;7.126;2022-12-10T15:08:37;2.90;99.90
33955;DHT22;20233;50.804;7.126;2022-12-10T15:11:05;2.90;99.90
33955;DHT22;20233;50.804;7.126;2022-12-10T15:13:40;2.90;99.90
33955;DHT22;20233;50.804;7.126;2022-12-10T15:16:27;2.90;99.90
33955;DHT22;20233;50.804;7.126;2022-12-10T15:18:54;2.90;99.90
33955;DHT22;20233;50.804;7.126;2022-12-10T15:21:24;2.80;99.90
33955;DHT22;20233;50.804;7.126;2022-12-10T15:24:06;2.70;99.90
33955;DHT22;20233;50.804;7.126;2022-12-10T15:26:33;2.80;99.90
33955;DHT22;20233;50.804;7.126;2022-12-10T15:31:49;2.70;99.90
33955;DHT22;20233;50.804;7.126;2022-12-10T15:34:16;2.80;99.90
33955;DHT22;20233;50.804;7.126;2022-12-10T15:36:51;2.80;99.90
33955;DHT22;20233;50.804;7.126;2022-12-10T15:39:21;2.90;99.90
33955;DHT22;20233;50.804;7.126;2022-12-10T15:47:20;2.80;99.90
33955;DHT22;20233;50.804;7.126;2022-12-10T15:49:50;2.70;99.90
33955;DHT22;20233;50.804;7.126;2022-12-10T15:52:19;2.80;99.90
33955;DHT22;20233;50.804;7.126;2022-12-10T15:54:49;2.70;99.90
33955;DHT22;20233;50.804;7.126;2022-12-10T15:59:52;2.70;99.90
33955;DHT22;20233;50.804;7.126;2022-12-10T16:05:28;2.60;99.90
33955;DHT22;20233;50.804;7.126;2022-12-10T16:07:58;2.60;99.90
33955;DHT22;20233;50.804;7.126;2022-12-10T16:10:26;2.60;99.90
33955;DHT22;20233;50.804;7.126;2022-12-10T16:13:00;2.60;99.90
33955;DHT22;20233;50.804;7.126;2022-12-10T16:15:31;2.60;99.90
33955;DHT22;20233;50.804;7.126;2022-12-10T16:18:03;2.60;99.90
33955;DHT22;20233;50.804;7.126;2022-12-10T16:20:31;2.60;99.90
33955;DHT22;20233;50.804;7.126;2022-12-10T16:22:58;2.50;99.90
33955;DHT22;20233;50.804;7.126;2022-12-10T16:25:28;2.60;99.90
33955;DHT22;20233;50.804;7.126;2022-12-10T16:27:56;2.50;99.90
33955;DHT22;20233;50.804;7.126;2022-12-10T16:30:38;2.60;99.90
33955;DHT22;20233;50.804;7.126;2022-12-10T16:33:06;2.50;99.90
33955;DHT22;20233;50.804;7.126;2022-12-10T16:35:33;2.60;99.90
33955;DHT22;20233;50.804;7.126;2022-12-10T16:38:00;2.50;99.90
33955;DHT22;20233;50.804;7.126;2022-12-10T16:40:28;2.50;99.90
33955;DHT22;20233;50.804;7.126;2022-12-10T16:42:55;2.60;99.90
33955;DHT22;20233;50.804;7.126;2022-12-10T16:45:26;2.60;99.90
33955;DHT22;20233;50.804;7.126;2022-12-10T16:47:53;2.60;99.90
33955;DHT22;20233;50.804;7.126;2022-12-10T16:50:20;2.50;99.90
33955;DHT22;20233;50.804;7.126;2022-12-10T16:52:48;2.40;99.90
33955;DHT22;20233;50.804;7.126;2022-12-10T16:55:20;2.40;99.90
33955;DHT22;20233;50.804;7.126;2022-12-10T16:57:47;2.40;99.90
33955;DHT22;20233;50.804;7.126;2022-12-10T17:00:15;2.30;99.90
33955;DHT22;20233;50.804;7.126;2022-12-10T17:02:43;2.30;99.90
33955;DHT22;20233;50.804;7.126;2022-12-10T17:05:31;2.30;99.90
33955;DHT22;20233;50.804;7.126;2022-12-10T17:07:59;2.30;99.90
33955;DHT22;20233;50.804;7.126;2022-12-10T17:10:25;2.30;99.90
33955;DHT22;20233;50.804;7.126;2022-12-10T17:13:11;2.20;99.90
33955;DHT22;20233;50.804;7.126;2022-12-10T17:15:39;2.30;99.90
33955;DHT22;20233;50.804;7.126;2022-12-10T17:18:11;2.20;99.90
33955;DHT22;20233;50.804;7.126;2022-12-10T17:20:38;2.30;99.90
33955;DHT22;20233;50.804;7.126;2022-12-10T17:23:05;2.30;99.90
33955;DHT22;20233;50.804;7.126;2022-12-10T17:25:32;2.30;99.90
33955;DHT22;20233;50.804;7.126;2022-12-10T17:27:59;2.30;99.90
33955;DHT22;20233;50.804;7.126;2022-12-10T17:30:26;2.30;99.90
33955;DHT22;20233;50.804;7.126;2022-12-10T17:32:52;2.30;99.90
33955;DHT22;20233;50.804;7.126;2022-12-10T17:35:19;2.30;99.90
33955;DHT22;20233;50.804;7.126;2022-12-10T17:37:46;2.30;99.90
33955;DHT22;20233;50.804;7.126;2022-12-10T17:40:18;2.30;99.90
33955;DHT22;20233;50.804;7.126;2022-12-10T17:42:46;2.30;99.90
33955;DHT22;20233;50.804;7.126;2022-12-10T17:45:15;2.30;99.90
33955;DHT22;20233;50.804;7.126;2022-12-10T17:47:42;2.30;99.90
33955;DHT22;20233;50.804;7.126;2022-12-10T17:50:26;2.40;99.90
33955;DHT22;20233;50.804;7.126;2022-12-10T17:52:56;2.30;99.90
33955;DHT22;20233;50.804;7.126;2022-12-10T17:55:24;2.30;99.90
33955;DHT22;20233;50.804;7.126;2022-12-10T17:57:50;2.30;99.90
33955;DHT22;20233;50.804;7.126;2022-12-10T18:00:20;2.30;99.90
33955;DHT22;20233;50.804;7.126;2022-12-10T18:02:47;2.30;99.90
33955;DHT22;20233;50.804;7.126;2022-12-10T18:05:14;2.20;99.90
33955;DHT22;20233;50.804;7.126;2022-12-10T18:07:40;2.10;99.90
33955;DHT22;20233;50.804;7.126;2022-12-10T18:10:16;2.10;99.90
33955;DHT22;20233;50.804;7.126;2022-12-10T18:12:43;2.10;99.90